LHPP/PEV METAR and TAF weather

Enter ICAO airport designator
Station Type Date Time Source
LHPP METAR 2022/10/01 08:15 UTC NOAA

LHPP 010815Z AUTO 12004KT 080V160 CAVOK 19/15 Q1014


Station Type Date Time Source
LHPP Decoded METAR 2022/10/01 08:15 UTC NOAA

Pecs / Pogany, Hungary (LHPP) 46-06N 018-14E 203M
Oct 01, 2022 - 04:15 AM EDT / 2022.10.01 0815 UTC
Wind: from the ESE (120 degrees) at 5 MPH (4 KT) (direction variable):0
Visibility: greater than 7 mile(s):0
Temperature: 66 F (19 C)
Dew Point: 59 F (15 C)
Relative Humidity: 77%
Pressure (altimeter): 29.94 in. Hg (1014 hPa)
ob: LHPP 010815Z AUTO 12004KT 080V160 CAVOK 19/15 Q1014
cycle: 8

Station Type Date Time Source
LHPP TAF 2017/08/21 15:50 UTC NOAA

TAF LHPP 211700Z 2115/2214 CNL

Example: see airport list